createdAt,value
2022-07-29T00:01:19.455Z,32.03
2022-07-29T00:03:21.624Z,32.25
2022-07-29T00:05:23.142Z,32.08
2022-07-29T00:07:25.148Z,32.39
2022-07-29T00:09:26.641Z,32.61
2022-07-29T00:11:28.331Z,32.71
2022-07-29T00:13:32.225Z,32.75
2022-07-29T00:15:34.217Z,32.61
2022-07-29T00:17:35.868Z,32.62
2022-07-29T00:19:37.397Z,32.71
2022-07-29T00:21:39.159Z,32.54
2022-07-29T00:23:41.006Z,32.31
2022-07-29T00:25:42.720Z,32.33
2022-07-29T00:27:44.622Z,32.35
2022-07-29T00:29:46.254Z,32.67
2022-07-29T00:31:47.918Z,32.33
2022-07-29T00:33:49.598Z,32.39
2022-07-29T00:35:51.148Z,32.61
2022-07-29T00:37:54.723Z,32.35
2022-07-29T00:39:56.253Z,32.85
2022-07-29T00:41:58.262Z,32.37
2022-07-29T00:44:00.009Z,32.88
2022-07-29T00:46:03.391Z,32.72
2022-07-29T00:48:06.054Z,32.59
2022-07-29T00:50:10.277Z,32.77
2022-07-29T00:52:13.025Z,32.47
2022-07-29T00:54:18.889Z,32.92
2022-07-29T00:56:21.016Z,32.66
2022-07-29T00:58:23.807Z,32.64
2022-07-29T01:00:28.016Z,33.07
2022-07-29T01:02:29.654Z,33.21
2022-07-29T01:04:39.966Z,33.16
2022-07-29T01:06:42.430Z,32.73
2022-07-29T01:08:46.591Z,33.15
2022-07-29T01:10:49.125Z,32.96
2022-07-29T01:12:53.936Z,33.20
2022-07-29T01:14:56.930Z,33.00
2022-07-29T01:17:11.678Z,32.95
2022-07-29T01:19:28.282Z,33.08
2022-07-29T01:21:53.317Z,33.02
2022-07-29T01:24:25.938Z,33.41
2022-07-29T01:26:42.330Z,33.00
2022-07-29T01:28:59.824Z,33.11
2022-07-29T01:31:04.176Z,33.45
2022-07-29T01:33:11.864Z,33.77
2022-07-29T01:35:25.955Z,34.14
2022-07-29T01:37:37.754Z,33.90
2022-07-29T01:39:40.409Z,34.10
2022-07-29T01:41:52.197Z,33.87
2022-07-29T01:44:00.321Z,33.96
2022-07-29T01:46:05.896Z,33.72
2022-07-29T01:48:16.132Z,33.73
2022-07-29T01:50:20.022Z,33.71
2022-07-29T01:52:37.253Z,33.79
2022-07-29T01:54:47.046Z,34.01
2022-07-29T01:56:52.285Z,33.66
2022-07-29T01:58:55.372Z,34.17
2022-07-29T02:00:59.517Z,34.30
2022-07-29T02:03:06.517Z,34.61
2022-07-29T02:05:11.648Z,34.13
2022-07-29T02:07:17.811Z,34.29
2022-07-29T02:09:21.975Z,34.52
2022-07-29T02:11:23.623Z,34.86
2022-07-29T02:13:27.043Z,34.60
2022-07-29T02:15:33.005Z,34.86
2022-07-29T02:17:42.017Z,34.56
2022-07-29T02:19:45.297Z,34.71
2022-07-29T02:21:48.125Z,34.31
2022-07-29T02:23:52.113Z,34.54
2022-07-29T02:25:56.798Z,34.47
2022-07-29T02:28:02.296Z,34.43
2022-07-29T02:30:06.099Z,34.48
2022-07-29T02:32:09.924Z,34.29
2022-07-29T02:34:13.005Z,34.58
2022-07-29T02:36:16.946Z,34.74
2022-07-29T02:38:38.450Z,34.64
2022-07-29T02:40:43.503Z,34.92
2022-07-29T02:42:45.631Z,34.74
2022-07-29T02:44:47.265Z,34.92
2022-07-29T02:46:54.573Z,35.06
2022-07-29T02:49:00.669Z,35.08
2022-07-29T02:51:15.104Z,35.43
2022-07-29T02:53:39.357Z,35.27
2022-07-29T02:55:53.821Z,35.64
2022-07-29T02:58:13.549Z,35.56
2022-07-29T03:00:16.536Z,35.63
2022-07-29T03:02:19.285Z,35.37
2022-07-29T03:04:23.835Z,35.81
2022-07-29T03:06:38.120Z,35.54
2022-07-29T03:08:40.886Z,36.04
2022-07-29T03:10:46.445Z,35.98
2022-07-29T03:12:48.797Z,35.75
2022-07-29T03:14:50.754Z,36.07
2022-07-29T03:16:53.090Z,36.11
2022-07-29T03:18:55.635Z,36.06
2022-07-29T03:20:57.606Z,36.11
2022-07-29T03:22:59.293Z,36.43
2022-07-29T03:25:09.276Z,36.34
2022-07-29T03:27:10.936Z,36.31
2022-07-29T03:29:13.509Z,36.18
2022-07-29T03:31:17.278Z,36.30
2022-07-29T03:33:18.926Z,36.10
2022-07-29T03:35:21.401Z,36.12
2022-07-29T03:37:22.972Z,36.41
2022-07-29T03:39:28.725Z,36.39
2022-07-29T03:41:32.588Z,36.47
2022-07-29T03:43:38.677Z,36.54
2022-07-29T03:45:55.253Z,36.70
2022-07-29T03:48:02.128Z,36.92
2022-07-29T03:50:10.843Z,36.81
2022-07-29T03:52:12.527Z,37.15
2022-07-29T03:54:14.549Z,37.16
2022-07-29T03:56:17.884Z,37.22
2022-07-29T03:58:20.342Z,37.27
2022-07-29T04:00:23.805Z,37.33
2022-07-29T04:02:30.584Z,37.51
2022-07-29T04:04:36.328Z,37.68
2022-07-29T04:06:45.962Z,38.08
2022-07-29T04:08:49.967Z,38.03
2022-07-29T04:10:53.429Z,38.06
2022-07-29T04:12:55.148Z,38.34
2022-07-29T04:14:56.758Z,38.38
2022-07-29T04:16:58.291Z,37.93
2022-07-29T04:19:00.217Z,38.39
2022-07-29T04:21:02.259Z,38.36
2022-07-29T04:23:04.045Z,38.27
2022-07-29T04:25:05.853Z,38.37
2022-07-29T04:27:07.505Z,38.39
2022-07-29T04:29:09.173Z,38.73
2022-07-29T04:31:12.158Z,38.66
2022-07-29T04:33:13.757Z,38.65
2022-07-29T04:35:15.530Z,38.77
2022-07-29T04:37:17.027Z,38.94
2022-07-29T04:39:22.993Z,38.99
2022-07-29T04:41:32.627Z,39.21
2022-07-29T04:43:36.697Z,39.14
2022-07-29T04:45:38.806Z,39.58
2022-07-29T04:47:40.330Z,39.91
2022-07-29T04:49:41.936Z,39.93
2022-07-29T04:51:43.600Z,40.04
2022-07-29T04:53:45.290Z,39.95
2022-07-29T04:55:47.095Z,40.19
2022-07-29T04:57:49.796Z,40.15
2022-07-29T04:59:51.299Z,39.91
2022-07-29T05:01:53.112Z,39.94
2022-07-29T05:03:59.885Z,40.14
2022-07-29T05:06:02.125Z,40.05
2022-07-29T05:08:04.190Z,40.21
2022-07-29T05:10:06.289Z,40.14
2022-07-29T05:12:08.673Z,39.96
2022-07-29T05:14:10.424Z,40.16
2022-07-29T05:16:12.177Z,40.30
2022-07-29T05:18:13.921Z,40.31
2022-07-29T05:20:15.633Z,40.61
2022-07-29T05:22:17.246Z,40.20
2022-07-29T05:24:19.398Z,40.39
2022-07-29T05:26:21.546Z,40.21
2022-07-29T05:28:23.196Z,40.41
2022-07-29T05:30:25.333Z,40.57
2022-07-29T05:32:26.997Z,40.49
2022-07-29T05:34:28.565Z,40.93
2022-07-29T05:36:30.190Z,41.38
2022-07-29T05:38:31.670Z,41.08
2022-07-29T05:40:33.511Z,41.16
2022-07-29T05:42:35.142Z,41.10
2022-07-29T05:44:40.526Z,41.56
2022-07-29T05:46:42.309Z,41.38
2022-07-29T05:48:44.121Z,41.08
2022-07-29T05:50:45.820Z,41.15
2022-07-29T05:52:49.688Z,40.89
2022-07-29T05:54:52.162Z,40.62
2022-07-29T05:56:53.925Z,40.61
2022-07-29T05:58:55.742Z,40.65
2022-07-29T06:01:00.340Z,40.48
2022-07-29T06:03:02.428Z,40.00
2022-07-29T06:05:04.323Z,39.90
2022-07-29T06:07:06.413Z,39.69
2022-07-29T06:09:09.153Z,39.37
2022-07-29T06:11:14.679Z,39.31
2022-07-29T06:13:17.032Z,38.84
2022-07-29T06:15:18.918Z,38.84
2022-07-29T06:17:20.478Z,38.79
2022-07-29T06:19:22.220Z,38.79
2022-07-29T06:21:23.905Z,38.30
2022-07-29T06:23:25.456Z,38.05
2022-07-29T06:25:30.115Z,37.72
2022-07-29T06:27:31.829Z,37.38
2022-07-29T06:29:33.390Z,37.37
2022-07-29T06:31:35.259Z,37.22
2022-07-29T06:33:36.953Z,36.98
2022-07-29T06:35:41.822Z,36.87
2022-07-29T06:37:43.840Z,37.01
2022-07-29T06:39:47.481Z,36.77
2022-07-29T06:41:50.735Z,36.61
2022-07-29T06:43:55.222Z,36.56
2022-07-29T06:46:03.502Z,36.29
2022-07-29T06:48:05.797Z,36.18
2022-07-29T06:50:08.605Z,36.07
2022-07-29T06:52:10.225Z,36.19
2022-07-29T06:54:11.803Z,35.74
2022-07-29T06:56:14.860Z,35.21
2022-07-29T06:58:18.867Z,35.27
2022-07-29T07:00:30.044Z,35.24
2022-07-29T07:02:31.702Z,34.97
2022-07-29T07:04:33.296Z,34.91
2022-07-29T07:06:38.102Z,34.64
2022-07-29T07:08:40.280Z,34.49
2022-07-29T07:10:41.880Z,34.43
2022-07-29T07:12:43.698Z,34.17
2022-07-29T07:14:45.269Z,34.08
2022-07-29T07:16:46.997Z,33.59
2022-07-29T07:18:49.537Z,33.40
2022-07-29T07:20:51.140Z,33.13
2022-07-29T07:22:52.739Z,32.93
2022-07-29T07:24:54.294Z,33.11
2022-07-29T07:26:55.898Z,32.84
2022-07-29T07:28:59.597Z,32.71
2022-07-29T07:31:01.327Z,33.07
2022-07-29T07:33:03.230Z,33.02
2022-07-29T07:35:07.298Z,32.48
2022-07-29T07:37:09.448Z,32.69
2022-07-29T07:39:11.117Z,32.58
2022-07-29T07:41:12.636Z,32.31
2022-07-29T07:43:14.581Z,32.57
2022-07-29T07:45:16.811Z,32.45
2022-07-29T07:47:20.898Z,32.10
2022-07-29T07:49:24.277Z,32.21
2022-07-29T07:51:25.914Z,31.82
2022-07-29T07:53:27.562Z,32.19
2022-07-29T07:55:30.692Z,32.20
2022-07-29T07:57:50.827Z,31.78
2022-07-29T07:59:52.405Z,31.81
2022-07-29T08:01:56.198Z,31.57
2022-07-29T08:03:58.254Z,31.49
2022-07-29T08:05:59.851Z,31.48
2022-07-29T08:08:01.501Z,31.88
2022-07-29T08:10:03.904Z,31.46
2022-07-29T08:12:06.643Z,31.70
2022-07-29T08:14:08.457Z,31.54
2022-07-29T08:16:13.991Z,31.46
2022-07-29T08:18:16.077Z,31.66
2022-07-29T08:20:18.045Z,30.98
2022-07-29T08:22:19.679Z,31.25
2022-07-29T08:24:41.031Z,31.27
2022-07-29T08:26:43.904Z,30.95
2022-07-29T08:28:50.442Z,31.48
2022-07-29T08:30:52.019Z,31.23
2022-07-29T08:32:55.043Z,30.70
2022-07-29T08:34:57.633Z,30.73
2022-07-29T08:36:59.405Z,30.77
2022-07-29T08:39:02.174Z,30.29
2022-07-29T08:41:04.260Z,30.18
2022-07-29T08:43:09.648Z,30.19
2022-07-29T08:45:11.723Z,30.62
2022-07-29T08:47:15.633Z,30.47
2022-07-29T08:49:18.861Z,30.61
2022-07-29T08:51:21.912Z,30.22
2022-07-29T08:53:27.460Z,30.40
2022-07-29T08:55:29.213Z,30.12
2022-07-29T08:57:31.772Z,29.41
2022-07-29T08:59:36.196Z,29.50
2022-07-29T09:01:42.781Z,29.61
2022-07-29T09:03:47.152Z,29.35
2022-07-29T09:05:49.962Z,29.76
2022-07-29T09:07:52.192Z,29.70
2022-07-29T09:09:53.986Z,29.47
2022-07-29T09:11:57.924Z,29.01
2022-07-29T09:14:00.408Z,29.19
2022-07-29T09:16:08.579Z,29.12
2022-07-29T09:18:19.483Z,28.86
2022-07-29T09:20:51.570Z,28.74
2022-07-29T09:22:54.489Z,29.09
2022-07-29T09:24:56.472Z,28.61
2022-07-29T09:26:58.091Z,28.72
2022-07-29T09:29:00.565Z,28.90
2022-07-29T09:31:03.612Z,28.88
2022-07-29T09:33:05.969Z,29.19
2022-07-29T09:35:25.791Z,29.06
2022-07-29T09:37:29.522Z,29.07
2022-07-29T09:39:45.197Z,28.59
2022-07-29T09:41:48.829Z,28.60
2022-07-29T09:43:59.127Z,28.47
2022-07-29T09:46:14.193Z,28.72
2022-07-29T09:48:22.101Z,28.78
2022-07-29T09:50:35.416Z,29.07
2022-07-29T09:52:47.516Z,28.87
2022-07-29T09:54:49.484Z,28.74
2022-07-29T09:56:51.537Z,28.86
2022-07-29T09:59:07.414Z,28.38
2022-07-29T10:01:09.374Z,28.69
2022-07-29T10:03:15.896Z,28.47
2022-07-29T10:05:25.785Z,28.92
2022-07-29T10:07:27.646Z,28.44
2022-07-29T10:09:29.872Z,28.29
2022-07-29T10:11:48.434Z,28.20
2022-07-29T10:13:51.361Z,28.11
2022-07-29T10:15:53.295Z,28.13
2022-07-29T10:17:56.499Z,28.22
2022-07-29T10:19:58.846Z,28.17
2022-07-29T10:22:04.034Z,28.36
2022-07-29T10:24:07.581Z,27.92
2022-07-29T10:26:17.938Z,27.70
2022-07-29T10:28:20.624Z,27.35
2022-07-29T10:30:25.030Z,27.45
2022-07-29T10:32:36.725Z,26.64
2022-07-29T10:34:47.325Z,26.83
2022-07-29T10:37:10.156Z,26.73
2022-07-29T10:39:15.585Z,26.88
2022-07-29T10:41:44.115Z,26.87
2022-07-29T10:43:51.492Z,26.73
2022-07-29T10:45:59.477Z,26.09
2022-07-29T10:48:07.870Z,26.49
2022-07-29T10:50:12.793Z,26.67
2022-07-29T10:52:20.443Z,26.41
2022-07-29T10:54:34.704Z,25.97
2022-07-29T10:56:36.717Z,26.63
2022-07-29T10:58:39.754Z,26.84
2022-07-29T11:00:43.305Z,26.76
2022-07-29T11:02:52.072Z,27.04
2022-07-29T11:04:53.703Z,26.46
2022-07-29T11:07:04.047Z,26.53
2022-07-29T11:09:25.666Z,26.45
2022-07-29T11:11:37.991Z,26.55
2022-07-29T11:13:47.221Z,26.62
2022-07-29T11:15:58.514Z,26.28
2022-07-29T11:18:01.320Z,26.17
2022-07-29T11:20:39.192Z,25.00
2022-07-29T11:25:43.053Z,25.51
2022-07-29T11:27:41.373Z,25.38
2022-07-29T11:29:58.585Z,26.07
2022-07-29T11:32:15.954Z,26.06
2022-07-29T11:34:27.826Z,25.62
2022-07-29T11:36:31.255Z,26.13
2022-07-29T11:38:32.904Z,25.25
2022-07-29T11:40:34.744Z,25.74
2022-07-29T11:42:41.725Z,25.35
2022-07-29T11:44:59.159Z,25.07
2022-07-29T11:47:10.674Z,25.25
2022-07-29T11:49:13.383Z,25.63
2022-07-29T11:51:17.174Z,25.13
2022-07-29T11:53:19.657Z,24.81
2022-07-29T11:55:32.627Z,24.82
2022-07-29T11:57:37.119Z,25.25
2022-07-29T11:59:44.207Z,25.05
2022-07-29T12:02:18.452Z,25.21
2022-07-29T12:04:24.712Z,24.82
2022-07-29T12:06:27.790Z,24.86
2022-07-29T12:08:30.502Z,24.97
2022-07-29T12:10:32.429Z,24.95
2022-07-29T12:12:36.164Z,24.86
2022-07-29T12:14:38.360Z,24.11
2022-07-29T12:16:40.753Z,24.21
2022-07-29T12:18:42.584Z,24.11
2022-07-29T12:20:45.757Z,24.01
2022-07-29T12:22:49.337Z,24.21
2022-07-29T12:24:51.093Z,23.83
2022-07-29T12:27:00.618Z,23.53
2022-07-29T12:29:03.462Z,23.63
2022-07-29T12:31:05.907Z,23.73
2022-07-29T12:33:24.871Z,23.76
2022-07-29T12:35:26.821Z,23.79
2022-07-29T12:37:40.580Z,23.84
2022-07-29T12:39:44.386Z,23.01
2022-07-29T12:41:46.210Z,22.60
2022-07-29T12:43:57.340Z,22.23
2022-07-29T12:46:12.111Z,22.85
2022-07-29T12:48:14.811Z,22.76
2022-07-29T12:50:21.149Z,22.91
2022-07-29T12:52:32.975Z,23.33
2022-07-29T12:54:34.878Z,23.23
2022-07-29T12:56:44.926Z,23.88
2022-07-29T12:58:51.133Z,23.53
2022-07-29T13:01:17.285Z,23.80
2022-07-29T13:03:19.566Z,24.34
2022-07-29T13:05:22.101Z,24.61
2022-07-29T13:07:55.590Z,24.49
2022-07-29T13:09:51.374Z,24.62
2022-07-29T13:11:54.402Z,25.04
2022-07-29T13:14:05.919Z,25.25
2022-07-29T13:16:09.250Z,25.70
2022-07-29T13:18:34.712Z,25.25
2022-07-29T13:20:36.334Z,25.46
2022-07-29T13:22:38.015Z,25.77
2022-07-29T13:24:54.270Z,26.24
2022-07-29T13:26:55.962Z,25.94
2022-07-29T13:28:57.598Z,26.02
2022-07-29T13:30:59.355Z,25.97
2022-07-29T13:33:01.299Z,26.26
2022-07-29T13:35:07.138Z,26.44
2022-07-29T13:37:08.899Z,26.28
2022-07-29T13:39:12.210Z,26.73
2022-07-29T13:41:13.781Z,26.68
2022-07-29T13:43:15.404Z,26.67
2022-07-29T13:45:16.959Z,26.89
2022-07-29T13:47:19.942Z,26.83
2022-07-29T13:49:21.665Z,27.16
2022-07-29T13:51:23.284Z,27.11
2022-07-29T13:53:27.004Z,27.22
2022-07-29T13:55:29.184Z,27.36
2022-07-29T13:57:30.879Z,27.47
2022-07-29T13:59:32.794Z,27.67
2022-07-29T14:01:37.671Z,27.49
2022-07-29T14:03:45.714Z,27.60
2022-07-29T14:05:47.542Z,27.71
2022-07-29T14:07:50.096Z,27.73
2022-07-29T14:09:52.312Z,27.84
2022-07-29T14:11:54.201Z,28.07
2022-07-29T14:13:55.785Z,27.86
2022-07-29T14:15:57.577Z,28.07
2022-07-29T14:17:59.332Z,28.60
2022-07-29T14:20:01.218Z,28.44
2022-07-29T14:22:04.380Z,28.86
2022-07-29T14:24:09.313Z,30.18
2022-07-29T14:26:21.735Z,30.55
2022-07-29T14:28:26.305Z,31.35
2022-07-29T14:30:28.222Z,32.33
2022-07-29T14:32:30.105Z,31.47
2022-07-29T14:34:32.295Z,31.20
2022-07-29T14:36:34.198Z,32.39
2022-07-29T14:38:37.087Z,34.70
2022-07-29T14:40:39.086Z,35.28
2022-07-29T14:42:41.182Z,37.27
2022-07-29T14:44:43.081Z,38.89
2022-07-29T14:46:48.552Z,39.37
2022-07-29T14:48:51.222Z,39.09
2022-07-29T14:50:53.017Z,39.65
2022-07-29T14:52:55.073Z,40.39
2022-07-29T14:54:57.038Z,40.59
2022-07-29T14:56:59.002Z,40.80
2022-07-29T14:59:00.704Z,41.59
2022-07-29T15:01:02.743Z,41.88
2022-07-29T15:03:05.612Z,42.84
2022-07-29T15:05:07.600Z,43.44
2022-07-29T15:07:09.370Z,44.00
2022-07-29T15:09:11.288Z,44.64
2022-07-29T15:11:13.740Z,45.74
2022-07-29T15:13:15.227Z,45.53
2022-07-29T15:15:16.832Z,45.75
2022-07-29T15:17:18.376Z,46.23
2022-07-29T15:19:21.673Z,47.22
2022-07-29T15:21:23.431Z,48.63
2022-07-29T15:23:24.916Z,48.79
2022-07-29T15:25:28.213Z,49.36
2022-07-29T15:27:30.014Z,50.33
2022-07-29T15:29:31.840Z,51.36
2022-07-29T15:31:33.487Z,51.70
2022-07-29T15:33:35.079Z,51.58
2022-07-29T15:35:40.541Z,52.11
2022-07-29T15:37:48.796Z,52.01
2022-07-29T15:39:51.300Z,52.20
2022-07-29T15:41:53.123Z,52.28
2022-07-29T15:43:54.770Z,52.83
2022-07-29T15:46:15.300Z,52.56
2022-07-29T15:48:16.900Z,52.98
2022-07-29T15:50:20.143Z,52.99
2022-07-29T15:52:25.283Z,53.50
2022-07-29T15:54:28.077Z,53.22
2022-07-29T15:56:30.482Z,53.57
2022-07-29T15:58:32.229Z,53.87
2022-07-29T16:00:33.918Z,53.52
2022-07-29T16:02:35.540Z,54.60
2022-07-29T16:04:37.448Z,54.72
2022-07-29T16:06:39.004Z,54.50
2022-07-29T16:08:40.461Z,55.11
2022-07-29T16:10:42.087Z,54.79
2022-07-29T16:12:43.648Z,54.52
2022-07-29T16:14:45.678Z,55.26
2022-07-29T16:16:47.804Z,55.57
2022-07-29T16:18:49.825Z,55.69
2022-07-29T16:20:51.521Z,55.84
2022-07-29T16:22:53.248Z,55.77
2022-07-29T16:24:55.045Z,55.25
2022-07-29T16:26:57.473Z,55.92
2022-07-29T16:28:59.816Z,56.31
2022-07-29T16:31:01.922Z,56.15
2022-07-29T16:33:08.120Z,56.41
2022-07-29T16:35:10.126Z,56.35
2022-07-29T16:37:11.673Z,56.09
2022-07-29T16:39:13.207Z,56.28
2022-07-29T16:41:15.073Z,56.47
2022-07-29T16:43:16.909Z,56.15
2022-07-29T16:45:21.298Z,56.74
2022-07-29T16:47:23.288Z,56.19
2022-07-29T16:49:27.089Z,56.68
2022-07-29T16:51:30.159Z,56.63
2022-07-29T16:53:32.226Z,57.14
2022-07-29T16:55:34.492Z,57.46
2022-07-29T16:57:36.048Z,56.83
2022-07-29T16:59:43.584Z,56.90
2022-07-29T17:01:45.402Z,57.11
2022-07-29T17:04:06.092Z,58.16
2022-07-29T17:06:07.852Z,57.60
2022-07-29T17:08:09.497Z,57.52
2022-07-29T17:10:12.148Z,57.98
2022-07-29T17:12:13.721Z,58.15
2022-07-29T17:14:15.246Z,57.82
2022-07-29T17:16:16.903Z,57.38
2022-07-29T17:18:18.449Z,57.89
2022-07-29T17:20:20.098Z,57.77
2022-07-29T17:22:21.721Z,58.22
2022-07-29T17:24:23.322Z,57.79
2022-07-29T17:26:28.179Z,58.20
2022-07-29T17:28:29.949Z,58.63
2022-07-29T17:30:31.666Z,58.28
2022-07-29T17:32:38.414Z,58.33
2022-07-29T17:34:42.452Z,58.80
2022-07-29T17:36:44.165Z,58.37
2022-07-29T17:38:46.023Z,58.61
2022-07-29T17:40:47.717Z,59.06
2022-07-29T17:42:49.632Z,59.30
2022-07-29T17:44:51.226Z,59.14
2022-07-29T17:46:52.962Z,59.68
2022-07-29T17:48:56.283Z,59.29
2022-07-29T17:50:58.358Z,59.29
2022-07-29T17:53:00.176Z,59.81
2022-07-29T17:55:03.867Z,59.79
2022-07-29T17:57:05.944Z,59.67
2022-07-29T17:59:09.946Z,59.74
2022-07-29T18:01:11.901Z,59.94
2022-07-29T18:03:14.429Z,60.46
2022-07-29T18:05:16.402Z,60.72
2022-07-29T18:07:21.921Z,60.57
2022-07-29T18:09:23.529Z,60.41
2022-07-29T18:11:26.716Z,60.30
2022-07-29T18:13:28.410Z,60.31
2022-07-29T18:15:31.220Z,60.45
2022-07-29T18:17:55.645Z,60.21
2022-07-29T18:19:54.143Z,60.25
2022-07-29T18:21:58.216Z,60.29
2022-07-29T18:24:02.342Z,60.43
2022-07-29T18:26:04.727Z,60.55
2022-07-29T18:28:07.044Z,60.51
2022-07-29T18:30:09.430Z,60.90
2022-07-29T18:32:11.022Z,60.93
2022-07-29T18:34:12.711Z,60.77
2022-07-29T18:36:14.453Z,60.51
2022-07-29T18:38:17.101Z,60.53
2022-07-29T18:40:21.039Z,60.65
2022-07-29T18:42:22.724Z,60.94
2022-07-29T18:44:24.302Z,61.06
2022-07-29T18:46:26.066Z,60.96
2022-07-29T18:48:27.765Z,61.32
2022-07-29T18:50:30.426Z,61.23
2022-07-29T18:52:32.379Z,60.97
2022-07-29T18:54:33.969Z,61.12
2022-07-29T18:56:36.314Z,60.78
2022-07-29T18:58:38.998Z,60.70
2022-07-29T19:00:40.714Z,60.47
2022-07-29T19:02:43.304Z,60.28
2022-07-29T19:04:46.174Z,60.54
2022-07-29T19:06:48.359Z,60.43
2022-07-29T19:08:51.791Z,60.45
2022-07-29T19:10:53.429Z,60.18
2022-07-29T19:12:56.772Z,60.35
2022-07-29T19:14:58.683Z,60.52
2022-07-29T19:17:00.792Z,60.85
2022-07-29T19:19:02.684Z,61.05
2022-07-29T19:21:04.728Z,61.05
2022-07-29T19:23:06.560Z,61.29
2022-07-29T19:25:10.075Z,61.16
2022-07-29T19:27:12.084Z,61.37
2022-07-29T19:29:15.102Z,61.32
2022-07-29T19:31:18.077Z,61.47
2022-07-29T19:33:20.867Z,61.69
2022-07-29T19:35:25.566Z,61.79
2022-07-29T19:37:27.238Z,62.28
2022-07-29T19:39:35.310Z,62.19
2022-07-29T19:41:38.080Z,62.38
2022-07-29T19:43:51.059Z,62.45
2022-07-29T19:45:54.464Z,62.41
2022-07-29T19:48:01.119Z,62.59
2022-07-29T19:50:04.013Z,62.18
2022-07-29T19:52:06.350Z,62.16
2022-07-29T19:54:08.716Z,62.46
2022-07-29T19:56:11.393Z,62.16
2022-07-29T19:58:13.142Z,62.77
2022-07-29T20:00:17.080Z,62.42
2022-07-29T20:02:23.246Z,62.78
2022-07-29T20:04:24.865Z,62.38
2022-07-29T20:06:27.194Z,62.61
2022-07-29T20:08:28.827Z,62.42
2022-07-29T20:10:30.500Z,62.52
2022-07-29T20:12:32.847Z,62.42
2022-07-29T20:14:34.484Z,62.36
2022-07-29T20:16:36.093Z,62.41
2022-07-29T20:18:37.813Z,62.45
2022-07-29T20:20:39.563Z,62.40
2022-07-29T20:22:41.333Z,62.07
2022-07-29T20:24:43.721Z,62.09
2022-07-29T20:26:47.048Z,62.20
2022-07-29T20:28:49.632Z,62.15
2022-07-29T20:30:51.773Z,62.15
2022-07-29T20:32:53.432Z,62.47
2022-07-29T20:34:54.961Z,62.38
2022-07-29T20:36:58.495Z,62.62
2022-07-29T20:39:00.496Z,62.61
2022-07-29T20:41:02.330Z,62.88
2022-07-29T20:43:03.886Z,62.73
2022-07-29T20:45:08.689Z,62.61
2022-07-29T20:47:10.675Z,62.56
2022-07-29T20:49:12.434Z,62.46
2022-07-29T20:51:14.663Z,62.52
2022-07-29T20:53:20.583Z,62.70
2022-07-29T20:55:22.251Z,62.76
2022-07-29T20:57:38.562Z,62.51
2022-07-29T20:59:45.815Z,62.46
2022-07-29T21:01:47.780Z,62.73
2022-07-29T21:03:49.545Z,62.52
2022-07-29T21:05:51.769Z,62.32
2022-07-29T21:07:56.589Z,62.38
2022-07-29T21:09:59.985Z,62.48
2022-07-29T21:12:02.208Z,62.53
2022-07-29T21:14:04.195Z,62.72
2022-07-29T21:16:14.855Z,62.36
2022-07-29T21:18:36.777Z,62.55
2022-07-29T21:20:38.434Z,62.73
2022-07-29T21:22:40.288Z,62.72
2022-07-29T21:24:41.973Z,62.64
2022-07-29T21:26:50.609Z,62.73
2022-07-29T21:29:01.136Z,62.52
2022-07-29T21:31:12.583Z,62.87
2022-07-29T21:33:14.448Z,62.83
2022-07-29T21:35:35.809Z,62.87
2022-07-29T21:37:39.024Z,62.59
2022-07-29T21:39:40.725Z,62.76
2022-07-29T21:41:42.380Z,62.59
2022-07-29T21:43:44.045Z,62.76
2022-07-29T21:45:50.375Z,62.51
2022-07-29T21:47:52.075Z,62.91
2022-07-29T21:49:54.043Z,62.72
2022-07-29T21:51:55.754Z,62.69
2022-07-29T21:53:58.401Z,62.71
2022-07-29T21:56:00.566Z,62.73
2022-07-29T21:58:02.248Z,62.59
2022-07-29T22:00:06.320Z,62.85
2022-07-29T22:02:14.086Z,62.93
2022-07-29T22:04:15.810Z,62.93
2022-07-29T22:06:18.173Z,63.20
2022-07-29T22:08:20.042Z,63.02
2022-07-29T22:10:22.215Z,62.85
2022-07-29T22:12:23.968Z,63.12
2022-07-29T22:14:25.644Z,62.96
2022-07-29T22:16:27.901Z,63.13
2022-07-29T22:18:29.657Z,63.39
2022-07-29T22:20:31.275Z,63.34
2022-07-29T22:22:33.388Z,63.24
2022-07-29T22:24:34.998Z,63.25
2022-07-29T22:26:37.275Z,63.40
2022-07-29T22:28:38.894Z,63.36
2022-07-29T22:30:42.250Z,63.32
2022-07-29T22:32:44.250Z,63.44
2022-07-29T22:34:46.386Z,63.60
2022-07-29T22:36:48.164Z,63.38
2022-07-29T22:38:51.981Z,63.34
2022-07-29T22:40:54.252Z,63.42
2022-07-29T22:43:02.261Z,63.53
2022-07-29T22:45:04.130Z,63.63
2022-07-29T22:47:06.047Z,63.51
2022-07-29T22:49:07.786Z,63.54
2022-07-29T22:51:09.483Z,63.45
2022-07-29T22:53:11.754Z,63.20
2022-07-29T22:55:13.609Z,63.33
2022-07-29T22:57:15.304Z,63.07
2022-07-29T22:59:17.109Z,62.98
2022-07-29T23:01:37.910Z,62.98
2022-07-29T23:03:39.925Z,62.90
2022-07-29T23:05:41.776Z,62.75
2022-07-29T23:07:43.443Z,63.23
2022-07-29T23:09:45.073Z,63.33
2022-07-29T23:11:47.279Z,63.12
2022-07-29T23:13:48.820Z,63.24
2022-07-29T23:15:50.477Z,62.81
2022-07-29T23:17:52.025Z,63.36
2022-07-29T23:19:53.928Z,63.17
2022-07-29T23:21:55.736Z,62.87
2022-07-29T23:23:57.329Z,63.22
2022-07-29T23:25:59.042Z,63.22
2022-07-29T23:28:00.693Z,63.18
2022-07-29T23:30:02.747Z,63.13
2022-07-29T23:32:04.831Z,63.40
2022-07-29T23:34:06.429Z,63.55
2022-07-29T23:36:08.478Z,63.66
2022-07-29T23:38:10.038Z,63.87
2022-07-29T23:40:14.401Z,63.65
2022-07-29T23:42:16.565Z,63.81
2022-07-29T23:44:18.244Z,63.92
2022-07-29T23:46:23.729Z,64.11
2022-07-29T23:48:25.739Z,64.22
2022-07-29T23:50:27.242Z,64.38
2022-07-29T23:52:28.925Z,64.28
2022-07-29T23:54:30.624Z,63.96
2022-07-29T23:56:32.194Z,64.18
2022-07-29T23:58:33.876Z,64.47
